Date,TemperatureHighF,TemperatureAvgF,TemperatureLowF,DewpointHighF,DewpointAvgF,DewpointLowF,HumidityHigh,HumidityAvg,HumidityLow,PressureMaxIn,PressureMinIn,WindSpeedMaxMPH,WindSpeedAvgMPH,GustSpeedMaxMPH,PrecipitationSumIn
2013-1-1,55.4,46.8,38.0,54.6,44.5,34.2,97,92,82,30.26,29.97,12,3,17,0.07
2013-1-2,41.8,36.0,31.4,34.2,29.5,27.3,88,78,61,30.36,30.25,9,3,0,0.00
2013-1-3,42.4,36.8,29.7,32.1,29.5,26.3,87,75,64,30.49,30.35,9,2,0,0.00
2013-1-4,40.8,37.1,32.9,37.3,34.7,31.0,96,91,69,30.55,30.41,6,1,0,0.20
2013-1-5,53.4,42.7,37.5,43.2,39.0,36.5,96,88,64,30.44,30.25,7,1,0,0.02
2013-1-6,56.0,45.0,35.4,39.0,33.8,29.4,95,68,37,30.43,30.31,12,3,14,0.01
2013-1-7,53.7,44.9,36.4,39.3,32.9,27.6,73,63,48,30.35,30.09,9,1,0,0.00
2013-1-8,50.2,47.5,44.8,49.4,45.8,39.2,97,94,73,30.09,29.89,12,2,0,0.99
2013-1-9,56.8,53.3,48.6,54.9,52.3,47.8,98,96,92,30.03,29.84,15,4,17,1.32
2013-1-10,63.4,52.7,44.7,52.2,45.7,41.6,97,79,51,30.05,29.98,20,4,22,0.01
2013-1-11,70.8,58.9,50.1,63.3,52.7,42.5,95,80,64,30.01,29.81,25,10,30,0.00
2013-1-12,65.3,65.2,65.1,64.1,63.7,63.3,96,95,94,29.83,29.80,13,7,18,0.00
2013-1-14,47.9,42.2,37.3,30.8,29.3,25.9,72,60,48,30.27,30.14,15,5,18,0.00
2013-1-15,39.2,34.3,32.0,32.9,30.7,24.7,95,87,69,30.29,30.12,13,4,17,0.03
2013-1-16,50.1,38.1,28.0,24.9,20.6,15.1,75,52,25,30.39,30.23,16,4,18,0.00
2013-1-17,62.0,49.1,36.9,37.1,30.5,18.7,70,50,34,30.51,30.31,12,3,13,0.00
2013-1-18,63.3,50.8,39.8,36.3,32.8,30.9,71,52,32,30.52,30.33,12,3,13,0.00
2013-1-19,66.3,52.3,41.5,47.4,42.1,33.7,96,70,45,30.34,30.16,17,7,23,0.00
2013-1-20,72.3,58.0,47.4,50.6,45.4,41.3,90,66,35,30.25,30.09,14,5,16,0.00
2013-1-21,69.8,57.5,48.0,51.0,47.1,41.6,88,70,48,30.24,30.12,13,3,16,0.00
2013-1-22,70.1,55.9,43.5,51.3,44.7,37.2,80,67,50,30.31,30.20,17,3,20,0.00
2013-1-23,72.5,59.8,49.3,57.5,52.3,47.6,96,78,57,30.33,30.19,18,6,22,0.00
2013-1-24,76.6,65.8,59.1,61.2,58.7,54.6,94,79,55,30.23,30.08,18,8,24,0.00
2013-1-25,78.3,65.7,54.8,61.4,58.3,50.4,93,79,53,30.13,30.01,23,8,25,0.00
2013-1-26,61.9,53.6,48.4,57.9,51.2,46.8,97,92,83,30.18,30.07,7,1,0,0.00
2013-1-27,75.5,65.2,54.8,63.9,60.6,53.4,96,86,64,30.11,29.94,22,9,26,0.00
2013-1-28,73.8,69.2,66.3,65.4,64.4,63.6,92,85,72,30.00,29.85,26,10,30,0.00
2013-1-29,78.7,67.6,55.5,65.9,57.2,25.4,95,72,31,29.85,29.49,24,9,28,0.02
2013-1-30,55.5,49.6,42.9,28.9,20.5,14.7,57,32,21,30.22,29.77,33,6,33,0.00
2013-1-31,66.1,51.8,41.3,24.3,19.4,14.5,37,29,17,30.31,30.19,18,6,22,0.00